createdAt,value
2022-10-22T00:01:31.514Z,17.00
2022-10-22T00:04:19.498Z,17.10
2022-10-22T00:07:02.849Z,17.00
2022-10-22T00:09:50.544Z,16.80
2022-10-22T00:12:31.727Z,16.90
2022-10-22T00:15:19.544Z,17.00
2022-10-22T00:18:00.641Z,17.00
2022-10-22T00:20:48.564Z,16.90
2022-10-22T00:23:30.767Z,16.90
2022-10-22T00:26:18.527Z,16.90
2022-10-22T00:29:07.525Z,16.80
2022-10-22T00:31:50.668Z,16.80
2022-10-22T00:34:39.547Z,17.00
2022-10-22T00:37:20.849Z,17.30
2022-10-22T00:40:10.512Z,17.40
2022-10-22T00:42:52.116Z,17.20
2022-10-22T00:45:40.519Z,17.20
2022-10-22T00:48:23.217Z,17.30
2022-10-22T00:51:12.622Z,17.00
2022-10-22T00:53:56.553Z,17.10
2022-10-22T00:56:46.549Z,17.10
2022-10-22T00:59:34.510Z,17.20
2022-10-22T01:02:15.657Z,17.00
2022-10-22T01:05:03.631Z,17.00
2022-10-22T01:07:47.767Z,17.10
2022-10-22T01:10:41.552Z,17.10
2022-10-22T01:13:29.721Z,17.30
2022-10-22T01:16:19.544Z,17.20
2022-10-22T01:19:04.745Z,17.20
2022-10-22T01:21:54.538Z,17.30
2022-10-22T01:24:41.671Z,17.20
2022-10-22T01:27:33.545Z,17.30
2022-10-22T01:30:17.690Z,16.90
2022-10-22T01:33:07.562Z,16.90
2022-10-22T01:35:56.553Z,17.20
2022-10-22T01:38:38.707Z,17.20
2022-10-22T01:41:26.557Z,17.10
2022-10-22T01:44:07.966Z,17.20
2022-10-22T01:46:57.633Z,17.10
2022-10-22T01:49:49.728Z,17.20
2022-10-22T01:52:41.555Z,17.30
2022-10-22T01:55:34.788Z,17.40
2022-10-22T01:58:22.544Z,17.20
2022-10-22T02:01:07.425Z,17.00
2022-10-22T02:03:59.546Z,17.10
2022-10-22T02:06:41.894Z,17.30
2022-10-22T02:09:30.541Z,17.00
2022-10-22T02:12:12.290Z,16.80
2022-10-22T02:15:00.663Z,17.00
2022-10-22T02:17:50.621Z,17.00
2022-10-22T02:20:37.090Z,17.10
2022-10-22T02:23:24.559Z,17.00
2022-10-22T02:26:08.725Z,17.20
2022-10-22T02:28:59.614Z,17.20
2022-10-22T02:31:44.785Z,17.10
2022-10-22T02:34:35.563Z,17.10
2022-10-22T02:37:18.876Z,17.00
2022-10-22T02:40:06.577Z,16.80
2022-10-22T02:42:49.697Z,16.80
2022-10-22T02:45:37.669Z,16.90
2022-10-22T02:48:25.620Z,17.00
2022-10-22T02:51:07.223Z,17.20
2022-10-22T02:53:56.591Z,17.00
2022-10-22T02:56:51.638Z,16.90
2022-10-22T02:59:39.657Z,16.80
2022-10-22T03:02:20.805Z,16.80
2022-10-22T03:05:08.615Z,16.80
2022-10-22T03:07:49.721Z,16.60
2022-10-22T03:10:38.684Z,16.70
2022-10-22T03:13:26.567Z,16.70
2022-10-22T03:16:08.142Z,16.60
2022-10-22T03:18:56.628Z,16.70
2022-10-22T03:21:39.217Z,17.00
2022-10-22T03:24:28.581Z,17.10
2022-10-22T03:27:12.679Z,16.80
2022-10-22T03:30:01.575Z,16.90
2022-10-22T03:32:42.939Z,17.00
2022-10-22T03:35:31.638Z,17.10
2022-10-22T03:38:13.149Z,17.00
2022-10-22T03:41:01.633Z,16.90
2022-10-22T03:43:55.723Z,17.10
2022-10-22T03:46:36.814Z,17.10
2022-10-22T03:49:24.579Z,17.20
2022-10-22T03:52:05.742Z,17.10
2022-10-22T03:54:53.586Z,17.20
2022-10-22T03:57:34.717Z,17.30
2022-10-22T04:00:23.693Z,17.00
2022-10-22T04:03:04.831Z,17.10
2022-10-22T04:05:52.602Z,17.10
2022-10-22T04:08:40.696Z,17.10
2022-10-22T04:11:21.989Z,17.30
2022-10-22T04:14:10.591Z,17.10
2022-10-22T04:16:53.319Z,17.10
2022-10-22T04:19:40.652Z,17.10
2022-10-22T04:22:22.087Z,17.10
2022-10-22T04:25:09.655Z,17.10
2022-10-22T04:27:50.986Z,17.00
2022-10-22T04:30:38.689Z,17.00
2022-10-22T04:33:21.359Z,17.00
2022-10-22T04:36:09.725Z,17.00
2022-10-22T04:38:54.051Z,17.10
2022-10-22T04:41:42.630Z,17.00
2022-10-22T04:44:30.659Z,17.00
2022-10-22T04:47:11.847Z,17.00
2022-10-22T04:50:00.695Z,17.10
2022-10-22T04:52:41.872Z,17.20
2022-10-22T04:58:12.782Z,17.20
2022-10-22T05:01:00.654Z,17.20
2022-10-22T05:03:41.767Z,17.10
2022-10-22T05:06:31.610Z,17.20
2022-10-22T05:09:13.981Z,17.20
2022-10-22T05:12:01.675Z,17.10
2022-10-22T05:14:49.728Z,17.20
2022-10-22T05:17:31.018Z,17.10
2022-10-22T05:20:19.608Z,17.10
2022-10-22T05:23:02.894Z,17.10
2022-10-22T05:25:51.624Z,17.30
2022-10-22T05:28:33.118Z,17.30
2022-10-22T05:31:21.722Z,17.30
2022-10-22T05:34:03.015Z,17.20
2022-10-22T05:36:50.749Z,17.20
2022-10-22T05:39:36.638Z,17.20
2022-10-22T05:42:24.620Z,17.30
2022-10-22T05:45:12.622Z,17.30
2022-10-22T05:47:53.758Z,17.40
2022-10-22T05:50:42.657Z,17.40
2022-10-22T05:53:24.777Z,17.50
2022-10-22T05:56:14.675Z,17.50
2022-10-22T05:58:56.918Z,17.50
2022-10-22T06:01:44.757Z,17.60
2022-10-22T06:04:25.780Z,17.50
2022-10-22T06:07:13.651Z,17.50
2022-10-22T06:09:55.878Z,17.60
2022-10-22T06:12:44.637Z,17.50
2022-10-22T06:15:33.719Z,17.50
2022-10-22T06:18:15.174Z,17.30
2022-10-22T06:21:02.653Z,17.30
2022-10-22T06:23:44.466Z,17.20
2022-10-22T06:26:31.709Z,17.20
2022-10-22T06:29:14.445Z,17.30
2022-10-22T06:32:02.654Z,17.40
2022-10-22T06:34:44.158Z,17.40
2022-10-22T06:37:31.643Z,17.50
2022-10-22T06:40:19.787Z,17.40
2022-10-22T06:43:00.848Z,17.40
2022-10-22T06:45:49.761Z,17.40
2022-10-22T06:48:30.849Z,17.30
2022-10-22T06:51:19.652Z,17.30
2022-10-22T06:54:01.840Z,17.40
2022-10-22T06:56:49.639Z,17.50
2022-10-22T06:59:31.878Z,17.50
2022-10-22T07:02:20.658Z,17.60
2022-10-22T07:05:01.873Z,17.60
2022-10-22T07:07:49.763Z,17.50
2022-10-22T07:10:37.673Z,17.50
2022-10-22T07:13:19.215Z,17.60
2022-10-22T07:16:07.665Z,17.60
2022-10-22T07:18:50.458Z,17.50
2022-10-22T07:21:37.669Z,17.50
2022-10-22T07:24:19.190Z,17.50
2022-10-22T07:27:09.436Z,17.50
2022-10-22T07:29:52.048Z,17.60
2022-10-22T07:32:39.667Z,17.60
2022-10-22T07:35:22.402Z,17.60
2022-10-22T07:38:09.707Z,17.60
2022-10-22T07:40:57.683Z,17.70
2022-10-22T07:43:39.897Z,17.80
2022-10-22T07:46:27.732Z,17.80
2022-10-22T07:49:08.895Z,17.80
2022-10-22T07:51:57.691Z,18.00
2022-10-22T07:54:38.873Z,17.90
2022-10-22T07:57:26.679Z,17.90
2022-10-22T08:00:07.904Z,18.10
2022-10-22T08:02:58.690Z,18.20
2022-10-22T08:05:46.782Z,18.30
2022-10-22T08:08:30.942Z,18.40
2022-10-22T08:11:18.699Z,18.40
2022-10-22T08:14:00.333Z,18.30
2022-10-22T08:16:47.879Z,18.40
2022-10-22T08:19:29.803Z,18.50
2022-10-22T08:22:17.696Z,18.50
2022-10-22T08:25:00.831Z,18.30
2022-10-22T08:27:49.691Z,18.20
2022-10-22T08:30:31.075Z,18.20
2022-10-22T08:33:19.730Z,18.10
2022-10-22T08:36:07.777Z,18.10
2022-10-22T08:38:49.831Z,18.10
2022-10-22T08:41:41.779Z,18.20
2022-10-22T08:44:40.934Z,18.10
2022-10-22T08:47:35.702Z,18.20
2022-10-22T08:50:19.911Z,18.30
2022-10-22T08:53:10.712Z,18.30
2022-10-22T08:55:52.935Z,18.30
2022-10-22T08:58:45.738Z,18.30
2022-10-22T09:01:28.887Z,18.40
2022-10-22T09:04:19.756Z,18.40
2022-10-22T09:07:01.896Z,18.40
2022-10-22T09:09:50.732Z,18.30
2022-10-22T09:12:33.953Z,18.30
2022-10-22T09:15:23.737Z,18.50
2022-10-22T09:18:16.711Z,18.60
2022-10-22T09:21:00.390Z,18.50
2022-10-22T09:23:51.725Z,18.70
2022-10-22T09:26:34.950Z,18.70
2022-10-22T09:29:28.833Z,18.80
2022-10-22T09:32:11.673Z,18.80
2022-10-22T09:35:00.785Z,19.00
2022-10-22T09:37:52.462Z,18.90
2022-10-22T09:40:39.713Z,18.80
2022-10-22T09:43:21.596Z,18.60
2022-10-22T09:46:11.711Z,18.50
2022-10-22T09:49:12.762Z,18.50
2022-10-22T09:51:55.424Z,18.70
2022-10-22T09:54:52.794Z,18.70
2022-10-22T09:57:55.813Z,18.70
2022-10-22T10:00:45.833Z,18.70
2022-10-22T10:03:28.054Z,18.80
2022-10-22T10:06:16.728Z,19.00
2022-10-22T10:08:57.991Z,18.90
2022-10-22T10:11:48.830Z,19.10
2022-10-22T10:14:43.849Z,19.10
2022-10-22T10:17:35.947Z,19.00
2022-10-22T10:20:23.733Z,19.10
2022-10-22T10:23:09.415Z,19.30
2022-10-22T10:26:00.805Z,19.30
2022-10-22T10:28:49.095Z,19.30
2022-10-22T10:31:45.690Z,19.30
2022-10-22T10:34:30.853Z,19.40
2022-10-22T10:37:24.730Z,19.40
2022-10-22T10:40:20.218Z,19.30
2022-10-22T10:43:10.746Z,19.30
2022-10-22T10:45:58.544Z,19.30
2022-10-22T10:48:57.736Z,19.40
2022-10-22T10:51:44.193Z,19.30
2022-10-22T10:57:45.756Z,19.40
2022-10-22T11:00:35.020Z,19.40
2022-10-22T11:03:25.757Z,19.50
2022-10-22T11:06:08.899Z,19.60
2022-10-22T11:09:00.884Z,19.60
2022-10-22T11:11:45.175Z,19.70
2022-10-22T11:14:36.824Z,20.00
2022-10-22T11:17:19.243Z,20.20
2022-10-22T11:20:09.797Z,20.30
2022-10-22T11:23:17.374Z,20.40
2022-10-22T11:26:01.772Z,20.30
2022-10-22T11:28:44.970Z,20.20
2022-10-22T11:31:38.769Z,20.30
2022-10-22T11:34:33.534Z,20.30
2022-10-22T11:37:15.857Z,20.50
2022-10-22T11:40:05.862Z,20.40
2022-10-22T11:42:49.158Z,20.50
2022-10-22T11:45:44.765Z,20.50
2022-10-22T11:48:30.195Z,20.50
2022-10-22T11:51:18.755Z,20.50
2022-10-22T11:54:02.307Z,20.70
2022-10-22T11:56:53.774Z,20.60
2022-10-22T11:59:39.337Z,20.70
2022-10-22T12:02:37.800Z,20.90
2022-10-22T12:05:43.240Z,21.00
2022-10-22T12:08:41.801Z,20.90
2022-10-22T12:11:24.786Z,21.00
2022-10-22T12:14:17.774Z,20.80
2022-10-22T12:17:00.183Z,20.70
2022-10-22T12:19:50.814Z,20.70
2022-10-22T12:22:44.859Z,20.60
2022-10-22T12:25:34.733Z,20.40
2022-10-22T12:28:23.785Z,20.40
2022-10-22T12:31:07.014Z,20.50
2022-10-22T12:33:55.793Z,20.70
2022-10-22T12:36:38.017Z,20.80
2022-10-22T12:39:26.791Z,20.90
2022-10-22T12:42:12.001Z,20.90
2022-10-22T12:45:02.794Z,20.70
2022-10-22T12:47:44.025Z,20.80
2022-10-22T12:50:36.821Z,20.70
2022-10-22T12:53:21.924Z,20.70
2022-10-22T12:56:10.863Z,20.90
2022-10-22T12:59:02.857Z,20.90
2022-10-22T13:01:44.510Z,20.80
2022-10-22T13:04:34.793Z,20.80
2022-10-22T13:07:21.118Z,20.90
2022-10-22T13:10:15.800Z,21.00
2022-10-22T13:12:59.695Z,21.10
2022-10-22T13:15:51.793Z,21.00
2022-10-22T13:18:34.113Z,21.10
2022-10-22T13:21:35.860Z,21.00
2022-10-22T13:24:21.616Z,21.20
2022-10-22T13:27:09.803Z,21.10
2022-10-22T13:29:51.719Z,21.00
2022-10-22T13:32:43.802Z,21.10
2022-10-22T13:35:26.209Z,21.10
2022-10-22T13:38:14.814Z,21.00
2022-10-22T13:41:02.803Z,21.20
2022-10-22T13:43:44.050Z,21.30
2022-10-22T13:46:32.818Z,21.20
2022-10-22T13:49:20.872Z,21.30
2022-10-22T13:52:08.867Z,21.40
2022-10-22T13:54:50.019Z,21.30
2022-10-22T13:57:37.813Z,21.20
2022-10-22T14:00:20.968Z,21.10
2022-10-22T14:03:08.822Z,21.20
2022-10-22T14:05:53.017Z,21.20
2022-10-22T14:08:40.961Z,21.00
2022-10-22T14:11:28.855Z,21.00
2022-10-22T14:14:14.282Z,21.20
2022-10-22T14:17:01.917Z,21.20
2022-10-22T14:19:44.239Z,21.10
2022-10-22T14:22:33.937Z,21.20
2022-10-22T14:25:16.122Z,21.20
2022-10-22T14:28:03.836Z,21.20
2022-10-22T14:30:45.388Z,21.30
2022-10-22T14:33:35.818Z,21.20
2022-10-22T14:36:18.217Z,21.20
2022-10-22T14:39:07.897Z,21.00
2022-10-22T14:41:49.292Z,21.00
2022-10-22T14:44:36.826Z,20.90
2022-10-22T14:47:24.948Z,21.00
2022-10-22T14:50:06.747Z,21.00
2022-10-22T14:52:54.818Z,21.00
2022-10-22T14:55:38.043Z,21.00
2022-10-22T14:58:25.928Z,21.00
2022-10-22T15:01:09.131Z,20.90
2022-10-22T15:03:56.942Z,20.90
2022-10-22T15:06:39.035Z,21.20
2022-10-22T15:09:26.848Z,21.30
2022-10-22T15:12:16.924Z,21.20
2022-10-22T15:14:58.322Z,21.10
2022-10-22T15:17:45.854Z,20.90
2022-10-22T15:20:27.865Z,20.90
2022-10-22T15:23:15.921Z,20.60
2022-10-22T15:25:57.523Z,20.60
2022-10-22T15:28:46.854Z,20.90
2022-10-22T15:31:52.316Z,20.70
2022-10-22T15:34:41.839Z,20.60
2022-10-22T15:37:37.027Z,20.70
2022-10-22T15:40:18.451Z,20.60
2022-10-22T15:43:05.943Z,21.00
2022-10-22T15:46:00.708Z,21.30
2022-10-22T15:48:48.884Z,21.30
2022-10-22T15:51:30.200Z,21.10
2022-10-22T15:54:18.986Z,20.70
2022-10-22T15:57:14.870Z,20.70
2022-10-22T16:00:02.855Z,20.80
2022-10-22T16:02:55.908Z,21.20
2022-10-22T16:05:37.406Z,21.00
2022-10-22T16:08:24.900Z,20.60
2022-10-22T16:11:06.303Z,20.40
2022-10-22T16:13:53.895Z,20.10
2022-10-22T16:16:36.582Z,20.20
2022-10-22T16:19:25.877Z,20.20
2022-10-22T16:22:10.127Z,20.10
2022-10-22T16:24:57.932Z,20.10
2022-10-22T16:27:39.536Z,19.90
2022-10-22T16:30:27.965Z,19.90
2022-10-22T16:33:15.895Z,19.70
2022-10-22T16:35:59.083Z,19.50
2022-10-22T16:38:46.943Z,19.40
2022-10-22T16:41:35.062Z,19.30
2022-10-22T16:44:22.964Z,19.30
2022-10-22T16:47:05.140Z,19.20
2022-10-22T16:49:52.908Z,19.10
2022-10-22T16:52:36.112Z,19.20
2022-10-22T16:55:24.018Z,19.20
2022-10-22T16:58:18.942Z,19.10
2022-10-22T17:01:00.278Z,19.10
2022-10-22T17:03:47.921Z,19.10
2022-10-22T17:06:29.343Z,18.90
2022-10-22T17:09:19.033Z,18.80
2022-10-22T17:12:00.329Z,18.70
2022-10-22T17:14:48.901Z,18.70
2022-10-22T17:17:30.292Z,18.60
2022-10-22T17:20:18.941Z,18.60
2022-10-22T17:23:00.350Z,18.50
2022-10-22T17:25:54.880Z,18.70
2022-10-22T17:28:43.912Z,18.60
2022-10-22T17:31:27.083Z,18.50
2022-10-22T17:34:15.900Z,18.70
2022-10-22T17:37:00.200Z,18.70
2022-10-22T17:39:48.009Z,18.70
2022-10-22T17:42:31.130Z,18.60
2022-10-22T17:45:18.929Z,18.70
2022-10-22T17:48:00.070Z,18.70
2022-10-22T17:50:51.496Z,18.70
2022-10-22T17:53:40.925Z,18.70
2022-10-22T17:56:35.908Z,18.50
2022-10-22T17:59:25.967Z,18.60
2022-10-22T18:02:07.121Z,18.70
2022-10-22T18:04:58.066Z,18.80
2022-10-22T18:07:39.177Z,18.80
2022-10-22T18:10:26.930Z,18.70
2022-10-22T18:13:08.384Z,18.50
2022-10-22T18:16:02.963Z,18.30
2022-10-22T18:18:44.056Z,18.20
2022-10-22T18:21:32.987Z,18.20
2022-10-22T18:24:21.015Z,18.40
2022-10-22T18:27:02.328Z,18.50
2022-10-22T18:29:50.050Z,18.40
2022-10-22T18:32:34.067Z,18.40
2022-10-22T18:35:21.985Z,18.40
2022-10-22T18:38:03.366Z,18.20
2022-10-22T18:40:52.930Z,18.10
2022-10-22T18:43:34.541Z,18.00
2022-10-22T18:46:22.946Z,18.10
2022-10-22T18:49:07.932Z,18.10
2022-10-22T18:51:58.912Z,18.10
2022-10-22T18:54:46.954Z,18.10
2022-10-22T18:57:41.975Z,18.10
2022-10-22T19:00:29.930Z,18.10
2022-10-22T19:03:12.114Z,18.00
2022-10-22T19:06:00.968Z,17.90
2022-10-22T19:08:44.832Z,17.90
2022-10-22T19:11:33.046Z,18.10
2022-10-22T19:14:14.608Z,17.90
2022-10-22T19:17:01.999Z,17.90
2022-10-22T19:19:43.224Z,17.90
2022-10-22T19:22:32.009Z,17.90
2022-10-22T19:25:20.968Z,17.70
2022-10-22T19:28:02.455Z,17.60
2022-10-22T19:30:51.027Z,17.70
2022-10-22T19:33:32.350Z,17.70
2022-10-22T19:36:20.952Z,17.70
2022-10-22T19:39:04.241Z,17.80
2022-10-22T19:41:51.967Z,17.80
2022-10-22T19:44:33.417Z,17.60
2022-10-22T19:47:21.063Z,17.80
2022-10-22T19:50:02.503Z,17.70
2022-10-22T19:52:50.023Z,17.40
2022-10-22T19:55:32.780Z,17.50
2022-10-22T19:58:19.962Z,17.50
2022-10-22T20:01:18.262Z,17.90
2022-10-22T20:04:00.311Z,17.70
2022-10-22T20:06:47.985Z,17.60
2022-10-22T20:09:29.495Z,17.60
2022-10-22T20:12:19.093Z,17.50
2022-10-22T20:15:01.610Z,17.30
2022-10-22T20:17:48.970Z,17.30
2022-10-22T20:20:30.372Z,17.50
2022-10-22T20:23:18.071Z,17.40
2022-10-22T20:25:59.420Z,17.40
2022-10-22T20:28:48.970Z,17.40
2022-10-22T20:31:36.975Z,17.40
2022-10-22T20:34:18.244Z,17.60
2022-10-22T20:37:06.028Z,17.80
2022-10-22T20:39:47.214Z,17.70
2022-10-22T20:42:35.038Z,17.70
2022-10-22T20:45:18.211Z,17.80
2022-10-22T20:48:06.226Z,17.90
2022-10-22T20:50:48.185Z,17.90
2022-10-22T20:53:36.063Z,17.80
2022-10-22T20:56:17.211Z,17.80
2022-10-22T20:59:12.007Z,17.80
2022-10-22T21:02:02.973Z,17.80
2022-10-22T21:04:45.720Z,17.70
2022-10-22T21:07:34.060Z,17.80
2022-10-22T21:10:15.598Z,17.80
2022-10-22T21:13:03.083Z,17.70
2022-10-22T21:15:44.493Z,17.60
2022-10-22T21:18:34.084Z,17.50
2022-10-22T21:21:17.127Z,17.50
2022-10-22T21:24:06.068Z,17.60
2022-10-22T21:26:47.426Z,17.60
2022-10-22T21:29:35.971Z,17.70
2022-10-22T21:32:24.002Z,17.50
2022-10-22T21:35:07.171Z,17.40
2022-10-22T21:37:54.985Z,17.20
2022-10-22T21:40:36.121Z,17.30
2022-10-22T21:43:23.974Z,17.30
2022-10-22T21:46:10.209Z,17.10
2022-10-22T21:49:01.071Z,17.00
2022-10-22T21:51:44.340Z,17.00
2022-10-22T21:54:32.010Z,17.20
2022-10-22T21:57:13.155Z,17.30
2022-10-22T22:00:01.091Z,17.30
2022-10-22T22:02:49.101Z,17.40
2022-10-22T22:05:30.649Z,17.60
2022-10-22T22:08:20.072Z,17.50
2022-10-22T22:11:02.339Z,17.20
2022-10-22T22:13:51.011Z,17.30
2022-10-22T22:16:33.391Z,17.20
2022-10-22T22:19:23.134Z,17.00
2022-10-22T22:22:04.513Z,17.10
2022-10-22T22:24:54.106Z,17.30
2022-10-22T22:27:42.254Z,17.30
2022-10-22T22:30:23.271Z,17.20
2022-10-22T22:33:11.000Z,17.00
2022-10-22T22:35:52.238Z,16.80
2022-10-22T22:38:40.021Z,16.70
2022-10-22T22:41:23.183Z,16.70
2022-10-22T22:44:11.089Z,16.70
2022-10-22T22:46:52.232Z,16.60
2022-10-22T22:49:42.138Z,16.70
2022-10-22T22:52:23.318Z,16.70
2022-10-22T22:55:10.993Z,16.70
2022-10-22T22:58:07.036Z,16.50
2022-10-22T23:00:48.332Z,16.40
2022-10-22T23:03:36.040Z,16.40
2022-10-22T23:06:17.433Z,16.40
2022-10-22T23:09:06.199Z,16.50
2022-10-22T23:11:48.176Z,16.70
2022-10-22T23:14:38.023Z,16.70
2022-10-22T23:17:19.657Z,16.60
2022-10-22T23:20:07.051Z,16.50
2022-10-22T23:22:48.403Z,16.60
2022-10-22T23:25:36.107Z,16.80
2022-10-22T23:28:24.122Z,16.90
2022-10-22T23:31:07.754Z,16.80
2022-10-22T23:33:55.087Z,16.70
2022-10-22T23:36:37.275Z,16.50
2022-10-22T23:39:26.034Z,16.50
2022-10-22T23:42:07.262Z,16.70
2022-10-22T23:44:55.052Z,16.70
2022-10-22T23:47:38.312Z,16.90
2022-10-22T23:50:26.045Z,17.00
2022-10-22T23:53:07.187Z,17.10
2022-10-22T23:55:55.060Z,16.90
2022-10-22T23:58:50.022Z,16.90
